createdAt,value
2018-09-17T00:00:53.187Z,16.40
2018-09-17T00:06:03.109Z,16.60
2018-09-17T00:11:13.322Z,16.90
2018-09-17T00:16:23.646Z,16.80
2018-09-17T00:21:34.112Z,17.00
2018-09-17T00:26:43.952Z,17.10
2018-09-17T00:31:54.225Z,17.00
2018-09-17T00:37:04.190Z,17.00
2018-09-17T00:42:14.468Z,16.90
2018-09-17T00:47:24.254Z,16.70
2018-09-17T00:52:34.155Z,16.80
2018-09-17T00:57:44.297Z,16.80
2018-09-17T01:02:54.177Z,16.70
2018-09-17T01:08:04.667Z,16.70
2018-09-17T01:13:14.632Z,16.70
2018-09-17T01:18:24.454Z,16.70
2018-09-17T01:23:34.278Z,16.40
2018-09-17T01:28:43.932Z,16.50
2018-09-17T01:33:53.878Z,16.40
2018-09-17T01:39:04.907Z,16.30
2018-09-17T01:44:15.131Z,16.10
2018-09-17T01:49:25.234Z,15.80
2018-09-17T01:54:35.326Z,15.80
2018-09-17T01:59:45.411Z,16.00
2018-09-17T02:04:55.154Z,16.10
2018-09-17T02:10:05.409Z,16.10
2018-09-17T02:15:15.236Z,16.10
2018-09-17T02:20:25.169Z,16.30
2018-09-17T02:25:35.672Z,16.20
2018-09-17T02:30:45.689Z,16.20
2018-09-17T02:35:55.913Z,16.10
2018-09-17T02:41:05.923Z,16.10
2018-09-17T02:46:15.692Z,16.10
2018-09-17T02:51:25.573Z,16.10
2018-09-17T02:56:35.524Z,16.00
2018-09-17T03:01:45.343Z,16.00
2018-09-17T03:06:55.673Z,16.00
2018-09-17T03:12:05.839Z,15.80
2018-09-17T03:17:16.412Z,15.00
2018-09-17T03:22:26.521Z,14.70
2018-09-17T03:27:36.367Z,14.60
2018-09-17T03:32:46.098Z,15.10
2018-09-17T03:37:56.701Z,15.30
2018-09-17T03:43:06.666Z,15.40
2018-09-17T03:48:17.383Z,14.50
2018-09-17T03:53:27.432Z,14.40
2018-09-17T03:58:37.218Z,14.30
2018-09-17T04:03:47.429Z,14.90
2018-09-17T04:08:58.547Z,15.30
2018-09-17T04:14:08.496Z,15.40
2018-09-17T04:19:18.109Z,15.30
2018-09-17T04:24:28.542Z,15.40
2018-09-17T04:29:39.176Z,15.40
2018-09-17T04:34:50.416Z,15.30
2018-09-17T04:40:01.600Z,15.10
2018-09-17T04:45:12.479Z,15.10
2018-09-17T04:50:22.872Z,15.20
2018-09-17T04:55:32.660Z,14.90
2018-09-17T05:00:42.330Z,14.40
2018-09-17T05:05:52.199Z,14.80
2018-09-17T05:11:03.964Z,14.70
2018-09-17T05:16:14.609Z,14.80
2018-09-17T05:21:25.153Z,14.80
2018-09-17T05:26:37.524Z,15.30
2018-09-17T05:31:47.402Z,15.30
2018-09-17T05:36:57.493Z,15.30
2018-09-17T05:42:10.922Z,15.00
2018-09-17T05:47:26.667Z,15.10
2018-09-17T05:52:36.349Z,14.80
2018-09-17T05:57:46.341Z,14.30
2018-09-17T06:02:56.175Z,14.30
2018-09-17T06:08:06.039Z,14.40
2018-09-17T06:13:21.670Z,14.90
2018-09-17T06:18:34.087Z,15.00
2018-09-17T06:23:44.141Z,15.30
2018-09-17T06:28:54.261Z,15.10
2018-09-17T06:34:09.519Z,14.90
2018-09-17T06:39:28.180Z,15.60
2018-09-17T06:44:38.249Z,15.70
2018-09-17T06:49:48.201Z,15.90
2018-09-17T06:55:04.837Z,16.00
2018-09-17T07:00:19.330Z,16.10
2018-09-17T07:05:29.557Z,16.20
2018-09-17T07:10:39.304Z,16.40
2018-09-17T07:15:49.149Z,16.40
2018-09-17T07:20:59.954Z,16.60
2018-09-17T07:26:17.931Z,17.00
2018-09-17T07:36:37.473Z,16.80
2018-09-17T07:41:48.521Z,16.80
2018-09-17T07:47:08.376Z,16.90
2018-09-17T07:52:19.180Z,17.00
2018-09-17T07:57:29.955Z,17.20
2018-09-17T08:02:39.731Z,17.40
2018-09-17T08:07:54.069Z,17.50
2018-09-17T08:13:15.988Z,18.20
2018-09-17T08:18:25.985Z,18.20
2018-09-17T08:23:37.526Z,18.10
2018-09-17T08:29:01.596Z,18.20
2018-09-17T08:34:11.546Z,18.50
2018-09-17T08:55:43.531Z,19.80
2018-09-17T09:01:08.029Z,19.80
2018-09-17T09:06:20.806Z,20.10
2018-09-17T09:11:38.201Z,20.10
2018-09-17T09:16:52.812Z,21.10
2018-09-17T09:22:02.818Z,21.30
2018-09-17T09:27:12.838Z,21.50
2018-09-17T09:32:22.652Z,22.00
2018-09-17T09:42:52.924Z,21.60
2018-09-17T09:48:02.902Z,22.60
2018-09-17T09:53:12.902Z,22.70
2018-09-17T09:58:23.168Z,23.50
2018-09-17T10:09:00.096Z,22.90
2018-09-17T10:14:18.765Z,22.30
2018-09-17T10:19:32.006Z,22.90
2018-09-17T10:31:29.644Z,24.00
2018-09-17T10:36:41.522Z,23.10
2018-09-17T10:41:51.372Z,22.90
2018-09-17T10:47:01.404Z,24.30
2018-09-17T10:52:11.173Z,26.00
2018-09-17T10:57:25.841Z,25.40
2018-09-17T11:02:39.519Z,24.90
2018-09-17T11:07:49.249Z,25.70
2018-09-17T11:12:59.101Z,25.80
2018-09-17T11:18:08.952Z,25.30
2018-09-17T11:23:18.752Z,25.30
2018-09-17T11:28:28.612Z,26.40
2018-09-17T11:33:46.017Z,25.20
2018-09-17T11:38:55.897Z,26.70
2018-09-17T11:44:05.720Z,28.10
2018-09-17T11:49:15.507Z,26.20
2018-09-17T11:54:27.880Z,26.80
2018-09-17T11:59:44.252Z,29.00
2018-09-17T12:04:56.824Z,27.80
2018-09-17T12:10:06.651Z,28.60
2018-09-17T12:15:16.463Z,28.70
2018-09-17T12:20:27.838Z,27.40
2018-09-17T12:25:38.930Z,28.70
2018-09-17T12:30:53.446Z,28.10
2018-09-17T12:36:03.814Z,29.40
2018-09-17T12:41:13.230Z,27.40
2018-09-17T12:46:22.953Z,28.10
2018-09-17T12:51:37.650Z,27.80
2018-09-17T12:56:53.241Z,27.80
2018-09-17T13:02:02.930Z,28.90
2018-09-17T13:07:12.768Z,28.60
2018-09-17T13:12:22.817Z,28.00
2018-09-17T13:17:38.950Z,28.80
2018-09-17T13:22:49.139Z,27.60
2018-09-17T13:28:08.689Z,27.90
2018-09-17T13:33:23.391Z,28.90
2018-09-17T13:38:43.241Z,28.50
2018-09-17T13:43:53.145Z,27.50
2018-09-17T13:49:03.824Z,26.80
2018-09-17T13:59:35.509Z,26.80
2018-09-17T14:04:45.403Z,26.90
2018-09-17T14:10:01.410Z,28.10
2018-09-17T14:15:16.243Z,28.30
2018-09-17T14:20:26.062Z,27.80
2018-09-17T14:25:36.145Z,27.60
2018-09-17T14:30:46.668Z,28.40
2018-09-17T14:35:57.004Z,28.20
2018-09-17T14:41:07.075Z,26.90
2018-09-17T14:46:17.386Z,26.60
2018-09-17T14:51:27.336Z,26.70
2018-09-17T14:56:37.125Z,26.60
2018-09-17T15:01:47.294Z,27.40
2018-09-17T15:06:57.146Z,27.20
2018-09-17T15:12:07.159Z,26.80
2018-09-17T15:17:18.549Z,26.60
2018-09-17T15:22:28.787Z,26.50
2018-09-17T15:27:38.657Z,26.50
2018-09-17T15:32:49.058Z,26.40
2018-09-17T15:37:59.202Z,26.30
2018-09-17T15:43:08.969Z,26.20
2018-09-17T15:48:18.747Z,26.20
2018-09-17T15:53:28.546Z,26.00
2018-09-17T15:58:38.745Z,26.00
2018-09-17T16:03:48.788Z,25.90
2018-09-17T16:08:58.813Z,25.90
2018-09-17T16:14:08.928Z,25.80
2018-09-17T16:19:18.907Z,25.70
2018-09-17T16:24:29.039Z,25.70
2018-09-17T16:29:39.145Z,25.50
2018-09-17T16:34:48.955Z,25.40
2018-09-17T16:39:58.929Z,25.30
2018-09-17T16:45:08.901Z,25.20
2018-09-17T16:50:20.076Z,25.20
2018-09-17T16:55:31.004Z,25.20
2018-09-17T17:00:41.276Z,25.10
2018-09-17T17:05:51.081Z,25.00
2018-09-17T17:11:01.117Z,24.90
2018-09-17T17:16:11.138Z,24.70
2018-09-17T17:21:21.003Z,24.60
2018-09-17T17:26:30.913Z,24.60
2018-09-17T17:31:40.771Z,24.90
2018-09-17T17:36:50.747Z,24.90
2018-09-17T17:42:00.634Z,24.80
2018-09-17T17:47:11.250Z,24.70
2018-09-17T17:52:21.329Z,24.60
2018-09-17T17:57:31.121Z,24.50
2018-09-17T18:02:41.078Z,24.40
2018-09-17T18:07:51.271Z,24.30
2018-09-17T18:13:01.525Z,24.10
2018-09-17T18:18:18.427Z,23.90
2018-09-17T18:23:28.312Z,23.80
2018-09-17T18:28:38.513Z,23.70
2018-09-17T18:33:48.395Z,23.70
2018-09-17T18:38:58.695Z,23.60
2018-09-17T18:44:09.612Z,23.30
2018-09-17T18:49:20.270Z,23.20
2018-09-17T18:54:30.147Z,23.20
2018-09-17T18:59:40.040Z,23.00
2018-09-17T19:04:50.134Z,22.80
2018-09-17T19:10:00.543Z,22.50
2018-09-17T19:15:16.881Z,22.40
2018-09-17T19:20:28.654Z,22.10
2018-09-17T19:25:38.495Z,22.10
2018-09-17T19:30:48.621Z,22.00
2018-09-17T19:35:59.124Z,22.00
2018-09-17T19:41:09.503Z,21.90
2018-09-17T19:46:20.147Z,22.00
2018-09-17T19:51:35.397Z,21.20
2018-09-17T20:00:20.026Z,21.50
2018-09-17T20:05:35.302Z,21.40
2018-09-17T20:10:45.312Z,21.50
2018-09-17T20:15:55.390Z,21.30
2018-09-17T20:21:07.367Z,21.20
2018-09-17T20:26:17.587Z,21.10
2018-09-17T20:31:27.578Z,21.00
2018-09-17T20:36:37.527Z,21.00
2018-09-17T20:41:47.737Z,20.90
2018-09-17T20:46:57.617Z,20.80
2018-09-17T20:52:07.570Z,20.80
2018-09-17T20:57:19.727Z,20.80
2018-09-17T21:02:29.575Z,21.00
2018-09-17T21:07:39.381Z,19.70
2018-09-17T21:12:49.319Z,20.20
2018-09-17T21:17:59.481Z,20.60
2018-09-17T21:23:09.455Z,20.40
2018-09-17T21:28:19.567Z,20.50
2018-09-17T21:33:30.395Z,20.60
2018-09-17T21:38:40.335Z,20.60
2018-09-17T21:43:50.262Z,20.20
2018-09-17T21:49:00.181Z,20.20
2018-09-17T21:54:09.856Z,20.20
2018-09-17T21:59:20.666Z,20.30
2018-09-17T22:04:30.568Z,20.30
2018-09-17T22:09:40.462Z,20.20
2018-09-17T22:14:50.358Z,20.20
2018-09-17T22:20:00.055Z,20.20
2018-09-17T22:25:09.820Z,19.80
2018-09-17T22:30:19.518Z,19.20
2018-09-17T22:35:29.348Z,19.10
2018-09-17T22:40:39.221Z,19.30
2018-09-17T22:45:49.106Z,19.30
2018-09-17T22:50:58.887Z,19.10
2018-09-17T22:56:08.748Z,19.00
2018-09-17T23:01:18.529Z,19.20
2018-09-17T23:06:28.362Z,18.60
2018-09-17T23:11:38.125Z,18.30
2018-09-17T23:16:47.899Z,18.30
2018-09-17T23:21:57.799Z,18.40
2018-09-17T23:27:07.888Z,18.40
2018-09-17T23:32:17.753Z,18.10
2018-09-17T23:37:27.467Z,18.00
2018-09-17T23:42:37.373Z,18.20
2018-09-17T23:47:47.167Z,18.40
2018-09-17T23:52:56.823Z,18.10
2018-09-17T23:58:06.556Z,18.10
